createdAt,value
2018-12-06T00:01:44.016Z,7.10
2018-12-06T00:04:15.870Z,7.00
2018-12-06T00:06:51.289Z,7.00
2018-12-06T00:09:26.375Z,7.00
2018-12-06T00:11:58.462Z,7.00
2018-12-06T00:14:32.019Z,7.00
2018-12-06T00:17:03.970Z,7.10
2018-12-06T00:19:38.353Z,7.10
2018-12-06T00:22:10.748Z,7.10
2018-12-06T00:24:42.728Z,7.20
2018-12-06T00:27:15.028Z,7.20
2018-12-06T00:29:56.571Z,7.40
2018-12-06T00:32:28.140Z,7.40
2018-12-06T00:35:00.391Z,7.40
2018-12-06T00:37:32.242Z,7.60
2018-12-06T00:40:04.620Z,7.60
2018-12-06T00:42:36.474Z,7.60
2018-12-06T00:45:08.587Z,7.60
2018-12-06T00:47:38.769Z,7.90
2018-12-06T00:50:11.710Z,7.80
2018-12-06T00:52:43.632Z,7.90
2018-12-06T00:55:15.944Z,8.10
2018-12-06T00:57:50.151Z,7.80
2018-12-06T01:00:21.930Z,7.90
2018-12-06T01:02:53.744Z,7.90
2018-12-06T01:05:26.103Z,7.90
2018-12-06T01:08:00.320Z,8.10
2018-12-06T01:10:36.180Z,8.20
2018-12-06T01:13:07.719Z,8.40
2018-12-06T01:15:39.936Z,8.40
2018-12-06T01:18:14.367Z,8.00
2018-12-06T01:20:46.843Z,7.90
2018-12-06T01:23:18.837Z,7.80
2018-12-06T01:25:50.962Z,7.60
2018-12-06T01:28:23.401Z,7.40
2018-12-06T01:30:55.094Z,7.30
2018-12-06T01:33:27.323Z,7.30
2018-12-06T01:35:57.246Z,7.20
2018-12-06T01:38:31.643Z,7.20
2018-12-06T01:41:04.366Z,7.20
2018-12-06T01:43:39.598Z,7.20
2018-12-06T01:46:16.662Z,7.20
2018-12-06T01:48:57.113Z,7.20
2018-12-06T02:12:41.765Z,7.20
2018-12-06T02:15:14.171Z,7.20
2018-12-06T02:23:53.551Z,7.10
2018-12-06T02:26:25.979Z,7.30
2018-12-06T02:29:01.605Z,7.30
2018-12-06T02:31:33.184Z,7.30
2018-12-06T02:34:03.294Z,7.50
2018-12-06T02:36:35.096Z,7.40
2018-12-06T02:39:08.436Z,7.50
2018-12-06T02:41:40.245Z,7.50
2018-12-06T02:44:12.544Z,7.50
2018-12-06T02:46:44.708Z,7.50
2018-12-06T02:49:16.901Z,7.30
2018-12-06T02:51:48.492Z,7.30
2018-12-06T02:54:20.548Z,7.40
2018-12-06T02:56:54.778Z,7.30
2018-12-06T02:59:27.425Z,7.30
2018-12-06T03:02:07.667Z,7.30
2018-12-06T03:04:39.347Z,7.30
2018-12-06T03:07:11.505Z,7.40
2018-12-06T03:09:43.606Z,7.40
2018-12-06T03:12:15.812Z,7.40
2018-12-06T03:14:48.002Z,7.40
2018-12-06T03:20:16.561Z,7.50
2018-12-06T03:22:48.538Z,7.60
2018-12-06T03:25:23.095Z,7.60
2018-12-06T03:27:57.234Z,7.60
2018-12-06T03:30:28.967Z,7.60
2018-12-06T03:33:00.997Z,7.50
2018-12-06T03:35:33.105Z,7.50
2018-12-06T03:38:05.228Z,7.60
2018-12-06T03:40:37.085Z,7.50
2018-12-06T03:43:09.141Z,7.50
2018-12-06T03:45:39.034Z,7.60
2018-12-06T03:48:13.497Z,7.60
2018-12-06T03:50:45.010Z,7.60
2018-12-06T03:53:14.994Z,7.60
2018-12-06T03:55:46.955Z,7.80
2018-12-06T03:58:18.953Z,7.70
2018-12-06T04:00:50.967Z,7.70
2018-12-06T04:03:25.552Z,7.60
2018-12-06T04:05:58.062Z,7.60
2018-12-06T04:08:30.534Z,7.60
2018-12-06T04:11:03.577Z,7.60
2018-12-06T04:13:33.588Z,7.70
2018-12-06T04:16:03.723Z,7.70
2018-12-06T04:18:35.739Z,7.90
2018-12-06T04:21:10.011Z,8.00
2018-12-06T04:23:44.882Z,8.10
2018-12-06T04:26:14.646Z,8.10
2018-12-06T04:28:46.741Z,7.90
2018-12-06T04:31:18.911Z,7.60
2018-12-06T04:33:50.832Z,7.60
2018-12-06T04:36:23.025Z,7.60
2018-12-06T04:38:57.270Z,7.50
2018-12-06T04:41:29.464Z,7.50
2018-12-06T04:44:03.495Z,7.50
2018-12-06T04:46:35.842Z,7.50
2018-12-06T04:49:05.627Z,7.50
2018-12-06T04:51:38.243Z,7.40
2018-12-06T04:54:14.034Z,7.40
2018-12-06T04:56:47.219Z,7.40
2018-12-06T04:59:19.381Z,7.50
2018-12-06T05:01:51.421Z,7.50
2018-12-06T05:04:26.991Z,7.50
2018-12-06T05:09:57.589Z,7.50
2018-12-06T05:12:30.243Z,7.50
2018-12-06T05:15:04.603Z,7.50
2018-12-06T05:17:37.059Z,7.50
2018-12-06T05:20:07.133Z,7.60
2018-12-06T05:22:39.045Z,7.60
2018-12-06T05:25:08.954Z,7.60
2018-12-06T05:27:41.357Z,7.60
2018-12-06T05:30:13.283Z,7.60
2018-12-06T05:32:43.334Z,7.60
2018-12-06T05:35:15.442Z,7.70
2018-12-06T05:37:47.629Z,7.60
2018-12-06T05:40:19.850Z,7.60
2018-12-06T05:42:51.868Z,7.60
2018-12-06T05:45:23.897Z,7.70
2018-12-06T05:47:56.316Z,7.80
2018-12-06T05:50:26.399Z,7.90
2018-12-06T05:52:56.412Z,7.90
2018-12-06T05:55:28.450Z,7.90
2018-12-06T05:58:00.590Z,7.90
2018-12-06T06:00:32.558Z,7.90
2018-12-06T06:03:04.669Z,7.80
2018-12-06T06:06:31.762Z,8.00
2018-12-06T06:09:04.619Z,8.10
2018-12-06T06:11:38.646Z,8.10
2018-12-06T06:14:12.561Z,8.00
2018-12-06T06:16:44.062Z,7.90
2018-12-06T06:19:14.589Z,8.00
2018-12-06T06:21:46.609Z,8.00
2018-12-06T06:24:18.752Z,8.00
2018-12-06T06:26:52.778Z,8.10
2018-12-06T06:29:24.654Z,8.10
2018-12-06T06:31:56.447Z,8.10
2018-12-06T06:34:28.478Z,8.20
2018-12-06T06:37:00.688Z,8.20
2018-12-06T06:39:32.600Z,8.30
2018-12-06T06:42:04.594Z,8.40
2018-12-06T06:44:39.118Z,8.40
2018-12-06T06:47:11.494Z,8.50
2018-12-06T06:49:43.475Z,8.50
2018-12-06T06:52:13.605Z,8.50
2018-12-06T06:54:47.855Z,8.60
2018-12-06T06:57:18.100Z,8.60
2018-12-06T06:59:50.061Z,8.60
2018-12-06T07:02:22.430Z,8.60
2018-12-06T07:04:54.579Z,8.60
2018-12-06T07:07:28.890Z,8.60
2018-12-06T07:10:00.462Z,8.50
2018-12-06T07:12:32.435Z,8.50
2018-12-06T07:15:04.770Z,8.50
2018-12-06T07:17:37.172Z,8.60
2018-12-06T07:20:11.594Z,8.60
2018-12-06T07:22:43.231Z,8.70
2018-12-06T07:25:15.117Z,8.70
2018-12-06T07:27:47.019Z,8.70
2018-12-06T07:30:18.806Z,8.70
2018-12-06T07:32:50.736Z,8.80
2018-12-06T07:35:23.049Z,8.80
2018-12-06T07:37:55.185Z,8.80
2018-12-06T07:40:26.660Z,8.80
2018-12-06T07:42:58.689Z,8.90
2018-12-06T07:45:33.006Z,8.90
2018-12-06T07:48:04.749Z,8.70
2018-12-06T07:50:36.618Z,8.80
2018-12-06T07:53:08.686Z,8.80
2018-12-06T07:55:40.522Z,8.80
2018-12-06T07:58:12.508Z,8.70
2018-12-06T08:00:44.381Z,8.70
2018-12-06T08:05:49.149Z,8.70
2018-12-06T08:08:21.922Z,8.70
2018-12-06T08:10:55.917Z,8.80
2018-12-06T08:13:27.476Z,8.90
2018-12-06T08:15:59.419Z,9.10
2018-12-06T08:21:30.147Z,9.10
2018-12-06T08:24:02.028Z,9.00
2018-12-06T08:26:34.079Z,9.10
2018-12-06T08:29:06.098Z,9.30
2018-12-06T08:31:38.089Z,9.30
2018-12-06T08:34:11.234Z,9.30
2018-12-06T08:36:43.334Z,9.30
2018-12-06T08:39:15.382Z,9.40
2018-12-06T08:41:47.387Z,9.40
2018-12-06T08:44:21.437Z,9.50
2018-12-06T08:46:53.427Z,9.60
2018-12-06T08:49:30.086Z,9.50
2018-12-06T08:52:00.366Z,9.50
2018-12-06T08:54:32.357Z,9.50
2018-12-06T08:57:04.404Z,9.30
2018-12-06T08:59:34.061Z,9.40
2018-12-06T09:02:08.375Z,9.50
2018-12-06T09:04:43.189Z,9.50
2018-12-06T09:07:21.185Z,9.60
2018-12-06T09:09:55.749Z,9.60
2018-12-06T09:12:28.029Z,9.60
2018-12-06T09:14:59.893Z,9.70
2018-12-06T09:17:31.953Z,9.70
2018-12-06T09:20:08.371Z,9.80
2018-12-06T09:22:40.670Z,9.80
2018-12-06T09:25:10.509Z,9.80
2018-12-06T09:27:42.340Z,9.80
2018-12-06T09:30:16.991Z,9.80
2018-12-06T09:32:47.413Z,9.90
2018-12-06T09:35:17.467Z,9.90
2018-12-06T09:37:49.779Z,9.90
2018-12-06T09:40:21.889Z,9.80
2018-12-06T09:42:53.692Z,9.80
2018-12-06T09:45:28.113Z,9.90
2018-12-06T09:47:59.758Z,9.90
2018-12-06T09:50:33.788Z,9.90
2018-12-06T09:53:05.652Z,9.90
2018-12-06T09:55:37.848Z,9.90
2018-12-06T09:58:09.743Z,10.00
2018-12-06T10:00:39.509Z,10.00
2018-12-06T10:03:11.329Z,10.00
2018-12-06T10:05:43.375Z,10.10
2018-12-06T10:08:15.077Z,10.10
2018-12-06T10:10:49.600Z,10.10
2018-12-06T10:15:48.672Z,9.90
2018-12-06T10:18:20.432Z,9.90
2018-12-06T10:23:22.930Z,10.00
2018-12-06T10:25:54.720Z,10.00
2018-12-06T10:28:26.582Z,10.10
2018-12-06T10:30:58.325Z,10.10
2018-12-06T10:33:30.316Z,10.10
2018-12-06T10:36:02.507Z,10.20
2018-12-06T10:38:32.271Z,10.10
2018-12-06T10:41:05.091Z,10.10
2018-12-06T10:43:37.228Z,10.20
2018-12-06T10:46:09.208Z,10.20
2018-12-06T10:48:41.475Z,10.20
2018-12-06T10:51:24.764Z,10.20
2018-12-06T10:53:56.359Z,10.30
2018-12-06T10:56:28.411Z,10.20
2018-12-06T10:58:58.438Z,10.30
2018-12-06T11:01:38.329Z,10.30
2018-12-06T11:04:10.666Z,10.40
2018-12-06T11:06:45.050Z,10.50
2018-12-06T11:09:18.601Z,10.50
2018-12-06T11:11:50.569Z,10.50
2018-12-06T11:14:20.431Z,10.50
2018-12-06T11:16:52.601Z,10.50
2018-12-06T11:19:24.328Z,10.50
2018-12-06T11:21:56.127Z,10.60
2018-12-06T11:24:28.034Z,10.60
2018-12-06T11:26:59.915Z,10.60
2018-12-06T11:29:34.202Z,10.60
2018-12-06T11:32:04.102Z,10.70
2018-12-06T11:34:35.710Z,10.70
2018-12-06T11:37:07.814Z,10.80
2018-12-06T11:39:37.556Z,10.80
2018-12-06T11:42:09.304Z,10.80
2018-12-06T11:44:43.850Z,10.90
2018-12-06T11:47:16.179Z,10.90
2018-12-06T11:49:50.530Z,10.80
2018-12-06T11:52:20.793Z,10.90
2018-12-06T11:54:51.011Z,10.90
2018-12-06T11:57:25.197Z,10.90
2018-12-06T11:59:56.823Z,10.90
2018-12-06T12:02:28.706Z,10.90
2018-12-06T12:05:00.727Z,10.90
2018-12-06T12:07:34.930Z,10.90
2018-12-06T12:10:07.611Z,10.90
2018-12-06T12:12:40.102Z,11.00
2018-12-06T12:15:12.348Z,10.90
2018-12-06T12:17:46.484Z,11.00
2018-12-06T12:20:18.768Z,11.00
2018-12-06T12:22:48.931Z,11.00
2018-12-06T12:25:23.227Z,11.00
2018-12-06T12:27:55.623Z,11.00
2018-12-06T12:30:29.894Z,11.00
2018-12-06T12:33:01.463Z,11.00
2018-12-06T12:35:49.217Z,11.00
2018-12-06T12:38:21.353Z,11.00
2018-12-06T12:40:55.476Z,11.10
2018-12-06T12:43:26.957Z,11.10
2018-12-06T12:45:58.870Z,11.00
2018-12-06T12:48:30.960Z,11.00
2018-12-06T12:51:03.407Z,11.10
2018-12-06T12:53:35.746Z,11.10
2018-12-06T12:56:07.370Z,11.10
2018-12-06T12:58:39.672Z,11.10
2018-12-06T13:01:11.385Z,11.10
2018-12-06T13:03:45.555Z,11.20
2018-12-06T13:06:17.575Z,11.10
2018-12-06T13:08:49.483Z,11.10
2018-12-06T13:11:21.307Z,11.00
2018-12-06T13:13:53.367Z,11.10
2018-12-06T13:16:25.557Z,11.10
2018-12-06T13:18:57.506Z,11.20
2018-12-06T13:21:29.430Z,11.10
2018-12-06T13:24:03.883Z,11.20
2018-12-06T13:26:37.786Z,11.10
2018-12-06T13:29:10.377Z,11.20
2018-12-06T13:31:44.752Z,11.30
2018-12-06T13:34:18.758Z,11.40
2018-12-06T13:36:50.386Z,11.30
2018-12-06T13:39:24.829Z,11.30
2018-12-06T13:41:56.503Z,11.30
2018-12-06T13:44:28.287Z,11.40
2018-12-06T13:47:00.639Z,11.40
2018-12-06T13:49:32.708Z,11.30
2018-12-06T13:52:02.639Z,11.40
2018-12-06T13:54:32.811Z,11.40
2018-12-06T13:57:04.756Z,11.20
2018-12-06T13:59:36.900Z,11.20
2018-12-06T14:02:09.198Z,11.20
2018-12-06T14:04:43.449Z,11.20
2018-12-06T14:07:18.278Z,11.30
2018-12-06T14:09:50.797Z,11.40
2018-12-06T14:12:23.085Z,11.30
2018-12-06T14:14:58.012Z,11.40
2018-12-06T14:17:30.619Z,11.40
2018-12-06T14:20:02.523Z,11.50
2018-12-06T14:22:37.423Z,11.40
2018-12-06T14:28:13.755Z,11.50
2018-12-06T14:30:48.380Z,11.50
2018-12-06T14:33:23.408Z,11.50
2018-12-06T14:35:56.087Z,11.50
2018-12-06T14:38:28.738Z,11.40
2018-12-06T14:41:02.667Z,11.40
2018-12-06T14:43:35.689Z,11.40
2018-12-06T14:46:08.203Z,11.10
2018-12-06T14:48:42.656Z,11.10
2018-12-06T14:51:13.130Z,11.10
2018-12-06T14:53:43.147Z,11.10
2018-12-06T14:56:15.150Z,11.20
2018-12-06T14:58:47.004Z,11.20
2018-12-06T15:01:21.118Z,11.00
2018-12-06T15:03:55.155Z,11.00
2018-12-06T15:06:26.695Z,10.90
2018-12-06T15:08:58.859Z,10.90
2018-12-06T15:11:28.550Z,10.80
2018-12-06T15:14:00.490Z,11.00
2018-12-06T15:16:32.554Z,10.90
2018-12-06T15:19:04.483Z,10.80
2018-12-06T15:21:34.540Z,10.90
2018-12-06T15:24:04.560Z,10.90
2018-12-06T15:26:36.296Z,10.80
2018-12-06T15:29:08.435Z,10.90
2018-12-06T15:31:40.364Z,10.80
2018-12-06T15:34:10.425Z,10.90
2018-12-06T15:36:42.530Z,10.80
2018-12-06T15:39:16.823Z,10.90
2018-12-06T15:41:49.237Z,11.00
2018-12-06T15:44:21.196Z,10.90
2018-12-06T15:46:53.151Z,10.90
2018-12-06T15:49:25.292Z,10.80
2018-12-06T15:51:55.107Z,10.90
2018-12-06T15:54:27.288Z,10.90
2018-12-06T15:56:59.298Z,11.00
2018-12-06T15:59:31.395Z,11.00
2018-12-06T16:02:03.363Z,11.00
2018-12-06T16:04:35.641Z,10.90
2018-12-06T16:07:08.006Z,11.00
2018-12-06T16:09:37.683Z,11.10
2018-12-06T16:12:09.535Z,11.10
2018-12-06T16:14:41.447Z,11.10
2018-12-06T16:17:15.940Z,10.90
2018-12-06T16:19:48.428Z,10.80
2018-12-06T16:22:20.431Z,10.70
2018-12-06T16:24:52.521Z,10.70
2018-12-06T16:27:24.730Z,10.70
2018-12-06T16:29:58.947Z,10.70
2018-12-06T16:32:31.120Z,10.70
2018-12-06T16:35:03.017Z,10.70
2018-12-06T16:40:30.856Z,10.90
2018-12-06T16:43:05.033Z,10.90
2018-12-06T16:45:38.919Z,10.90
2018-12-06T16:48:10.713Z,10.90
2018-12-06T16:50:42.771Z,10.80
2018-12-06T16:53:14.519Z,10.90
2018-12-06T16:55:46.449Z,10.80
2018-12-06T16:58:18.557Z,10.90
2018-12-06T17:00:51.265Z,10.80
2018-12-06T17:03:23.135Z,10.90
2018-12-06T17:05:55.051Z,10.90
2018-12-06T17:08:28.013Z,10.90
2018-12-06T17:10:59.866Z,10.90
2018-12-06T17:13:34.502Z,10.80
2018-12-06T17:16:08.704Z,10.70
2018-12-06T17:18:41.238Z,10.80
2018-12-06T17:21:13.405Z,10.70
2018-12-06T17:23:43.170Z,10.70
2018-12-06T17:26:15.392Z,10.50
2018-12-06T17:28:45.860Z,10.40
2018-12-06T17:31:17.849Z,10.40
2018-12-06T17:33:50.958Z,10.50
2018-12-06T17:36:23.018Z,10.40
2018-12-06T17:39:07.421Z,10.40
2018-12-06T17:41:42.163Z,10.40
2018-12-06T17:44:14.892Z,10.40
2018-12-06T17:46:47.208Z,10.40
2018-12-06T17:49:19.406Z,10.30
2018-12-06T17:51:51.686Z,10.30
2018-12-06T17:54:26.072Z,10.30
2018-12-06T17:56:57.946Z,10.40
2018-12-06T17:59:30.023Z,10.40
2018-12-06T18:02:01.740Z,10.40
2018-12-06T18:04:33.927Z,10.40
2018-12-06T18:07:03.809Z,10.40
2018-12-06T18:09:35.716Z,10.50
2018-12-06T18:12:07.809Z,10.50
2018-12-06T18:14:40.016Z,10.50
2018-12-06T18:17:11.858Z,10.50
2018-12-06T18:19:43.833Z,10.50
2018-12-06T18:22:18.128Z,10.80
2018-12-06T18:24:53.113Z,10.80
2018-12-06T18:27:25.402Z,10.70
2018-12-06T18:29:59.807Z,10.50
2018-12-06T18:32:32.230Z,10.30
2018-12-06T18:35:04.667Z,10.20
2018-12-06T18:37:36.424Z,10.20
2018-12-06T18:40:20.795Z,10.10
2018-12-06T18:42:55.139Z,10.10
2018-12-06T18:45:26.756Z,10.00
2018-12-06T18:47:58.558Z,10.00
2018-12-06T18:50:31.029Z,10.10
2018-12-06T18:53:00.913Z,10.10
2018-12-06T18:55:35.889Z,10.30
2018-12-06T18:58:07.956Z,10.40
2018-12-06T19:00:40.210Z,10.30
2018-12-06T19:03:10.877Z,10.30
2018-12-06T19:05:42.939Z,10.30
2018-12-06T19:08:14.721Z,10.20
2018-12-06T19:10:46.627Z,10.20
2018-12-06T19:13:18.764Z,10.20
2018-12-06T19:15:56.950Z,10.20
2018-12-06T19:18:31.807Z,10.30
2018-12-06T19:21:06.102Z,10.30
2018-12-06T19:23:38.685Z,10.30
2018-12-06T19:26:11.218Z,10.20
2018-12-06T19:28:43.042Z,10.20
2018-12-06T19:31:15.563Z,10.20
2018-12-06T19:33:48.304Z,10.20
2018-12-06T19:36:22.365Z,10.30
2018-12-06T19:38:55.067Z,10.30
2018-12-06T19:41:29.315Z,10.30
2018-12-06T19:43:58.826Z,10.40
2018-12-06T19:46:33.464Z,10.40
2018-12-06T19:49:07.977Z,10.40
2018-12-06T19:51:44.389Z,10.40
2018-12-06T19:54:19.130Z,10.40
2018-12-06T19:56:51.623Z,10.40
2018-12-06T19:59:26.120Z,10.40
2018-12-06T20:01:58.211Z,10.40
2018-12-06T20:04:30.113Z,10.50
2018-12-06T20:07:00.136Z,10.50
2018-12-06T20:09:31.960Z,10.50
2018-12-06T20:12:04.420Z,10.50
2018-12-06T20:14:36.268Z,10.60
2018-12-06T20:17:08.838Z,10.60
2018-12-06T20:19:43.726Z,10.60
2018-12-06T20:22:16.553Z,10.60
2018-12-06T20:24:50.871Z,10.60
2018-12-06T20:27:22.832Z,10.60
2018-12-06T20:29:54.883Z,10.70
2018-12-06T20:32:26.960Z,10.70
2018-12-06T20:35:00.102Z,10.70
2018-12-06T20:37:30.947Z,10.70
2018-12-06T20:40:04.330Z,10.70
2018-12-06T20:42:36.938Z,10.60
2018-12-06T20:45:09.098Z,10.70
2018-12-06T20:47:41.700Z,10.70
2018-12-06T20:50:20.000Z,10.70
2018-12-06T20:52:52.447Z,10.80
2018-12-06T20:55:22.772Z,10.80
2018-12-06T20:57:53.329Z,10.70
2018-12-06T21:00:25.825Z,10.60
2018-12-06T21:03:00.907Z,10.60
2018-12-06T21:05:31.654Z,10.60
2018-12-06T21:08:03.794Z,10.50
2018-12-06T21:10:36.415Z,10.50
2018-12-06T21:13:10.802Z,10.50
2018-12-06T21:15:45.934Z,10.50
2018-12-06T21:18:18.568Z,10.50
2018-12-06T21:20:51.048Z,10.60
2018-12-06T21:23:23.390Z,10.60
2018-12-06T21:25:55.628Z,10.70
2018-12-06T21:28:27.702Z,10.70
2018-12-06T21:31:02.010Z,10.80
2018-12-06T21:33:34.566Z,10.70
2018-12-06T21:36:04.699Z,10.70
2018-12-06T21:38:36.757Z,10.80
2018-12-06T21:41:08.754Z,10.90
2018-12-06T21:43:40.981Z,10.80
2018-12-06T21:46:13.115Z,10.80
2018-12-06T21:48:45.206Z,10.80
2018-12-06T21:51:16.946Z,10.70
2018-12-06T21:53:51.364Z,10.70
2018-12-06T21:56:24.013Z,10.80
2018-12-06T21:58:56.189Z,10.90
2018-12-06T22:01:28.003Z,10.80
2018-12-06T22:04:00.499Z,10.80
2018-12-06T22:06:32.273Z,10.90
2018-12-06T22:09:07.164Z,10.80
2018-12-06T22:11:39.973Z,10.90
2018-12-06T22:14:12.360Z,10.90
2018-12-06T22:16:44.304Z,10.90
2018-12-06T22:19:18.484Z,10.90
2018-12-06T22:21:52.466Z,10.90
2018-12-06T22:24:24.691Z,10.90
2018-12-06T22:26:56.661Z,10.90
2018-12-06T22:29:30.687Z,10.90
2018-12-06T22:32:04.610Z,11.00
2018-12-06T22:34:36.160Z,11.00
2018-12-06T22:37:08.057Z,11.00
2018-12-06T22:39:42.349Z,11.00
2018-12-06T22:42:13.926Z,11.00
2018-12-06T22:44:46.177Z,11.00
2018-12-06T22:47:18.235Z,10.90
2018-12-06T22:49:50.592Z,10.90
2018-12-06T22:52:22.658Z,10.90
2018-12-06T22:54:54.491Z,10.90
2018-12-06T22:57:28.862Z,10.90
2018-12-06T23:00:00.259Z,10.90
2018-12-06T23:02:32.218Z,11.00
2018-12-06T23:05:04.425Z,10.90
2018-12-06T23:07:34.235Z,11.00
2018-12-06T23:10:06.655Z,10.90
2018-12-06T23:12:39.067Z,10.90
2018-12-06T23:15:10.870Z,11.00
2018-12-06T23:17:45.115Z,11.00
2018-12-06T23:20:17.437Z,11.00
2018-12-06T23:22:51.688Z,11.10
2018-12-06T23:25:25.679Z,11.00
2018-12-06T23:27:57.904Z,11.00
2018-12-06T23:30:30.306Z,10.90
2018-12-06T23:33:02.219Z,10.90
2018-12-06T23:35:34.145Z,11.00
2018-12-06T23:38:04.142Z,11.00
2018-12-06T23:40:34.261Z,11.00
2018-12-06T23:43:06.045Z,10.90
2018-12-06T23:45:37.976Z,10.90
2018-12-06T23:48:10.217Z,10.90
2018-12-06T23:50:42.182Z,10.90
2018-12-06T23:53:16.611Z,10.90
2018-12-06T23:55:50.767Z,10.90
2018-12-06T23:58:23.062Z,10.80
